sensor_id;sensor_type;location;lat;lon;timestamp;pressure;altitude;pressure_sealevel;temperature;humidity
42859;BME280;28505;56.970;40.998;2023-05-20T00:02:17;100871.25;;;9.82;100.00
42859;BME280;28505;56.970;40.998;2023-05-20T00:07:39;100859.91;;;9.80;100.00
42859;BME280;28505;56.970;40.998;2023-05-20T00:13:02;100861.03;;;9.90;100.00
42859;BME280;28505;56.970;40.998;2023-05-20T00:18:24;100854.31;;;9.92;100.00
42859;BME280;28505;56.970;40.998;2023-05-20T00:23:46;100857.78;;;9.82;100.00
42859;BME280;28505;56.970;40.998;2023-05-20T00:29:08;100860.19;;;9.84;100.00
42859;BME280;28505;56.970;40.998;2023-05-20T00:34:30;100852.13;;;9.84;100.00
42859;BME280;28505;56.970;40.998;2023-05-20T00:39:52;100855.09;;;9.82;100.00
42859;BME280;28505;56.970;40.998;2023-05-20T00:45:15;100857.75;;;9.77;100.00
42859;BME280;28505;56.970;40.998;2023-05-20T00:50:37;100857.53;;;9.89;100.00
42859;BME280;28505;56.970;40.998;2023-05-20T00:56:00;100861.56;;;9.87;100.00
42859;BME280;28505;56.970;40.998;2023-05-20T01:01:23;100862.88;;;9.84;100.00
42859;BME280;28505;56.970;40.998;2023-05-20T01:06:45;100856.69;;;9.78;100.00
42859;BME280;28505;56.970;40.998;2023-05-20T01:12:22;100864.53;;;9.90;100.00
42859;BME280;28505;56.970;40.998;2023-05-20T01:17:49;100864.78;;;9.78;100.00
42859;BME280;28505;56.970;40.998;2023-05-20T01:23:12;100876.59;;;9.77;100.00
42859;BME280;28505;56.970;40.998;2023-05-20T01:28:36;100875.56;;;9.78;100.00
42859;BME280;28505;56.970;40.998;2023-05-20T01:34:02;100872.88;;;9.94;100.00
42859;BME280;28505;56.970;40.998;2023-05-20T01:39:25;100889.03;;;9.89;100.00
42859;BME280;28505;56.970;40.998;2023-05-20T01:44:47;100886.63;;;9.92;100.00
42859;BME280;28505;56.970;40.998;2023-05-20T01:50:09;100894.94;;;9.91;100.00
42859;BME280;28505;56.970;40.998;2023-05-20T01:55:31;100888.50;;;9.97;100.00
42859;BME280;28505;56.970;40.998;2023-05-20T02:00:53;100893.06;;;9.86;100.00
42859;BME280;28505;56.970;40.998;2023-05-20T02:06:16;100884.75;;;9.88;100.00
42859;BME280;28505;56.970;40.998;2023-05-20T02:11:38;100881.53;;;10.01;100.00
42859;BME280;28505;56.970;40.998;2023-05-20T02:17:00;100885.56;;;10.08;100.00
42859;BME280;28505;56.970;40.998;2023-05-20T02:22:22;100879.66;;;10.01;100.00
42859;BME280;28505;56.970;40.998;2023-05-20T02:27:44;100882.31;;;10.06;100.00
42859;BME280;28505;56.970;40.998;2023-05-20T02:33:06;100881.00;;;10.19;100.00
42859;BME280;28505;56.970;40.998;2023-05-20T02:38:30;100876.69;;;10.23;100.00
42859;BME280;28505;56.970;40.998;2023-05-20T02:43:53;100875.38;;;10.36;100.00
42859;BME280;28505;56.970;40.998;2023-05-20T02:49:14;100879.97;;;10.30;100.00
42859;BME280;28505;56.970;40.998;2023-05-20T02:54:36;100880.25;;;10.34;100.00
42859;BME280;28505;56.970;40.998;2023-05-20T02:59:59;100884.56;;;10.45;100.00
42859;BME280;28505;56.970;40.998;2023-05-20T03:05:24;100879.16;;;10.35;100.00
42859;BME280;28505;56.970;40.998;2023-05-20T03:10:49;100884.31;;;10.47;100.00
42859;BME280;28505;56.970;40.998;2023-05-20T03:16:11;100891.03;;;10.60;100.00
42859;BME280;28505;56.970;40.998;2023-05-20T03:21:33;100898.31;;;10.64;100.00
42859;BME280;28505;56.970;40.998;2023-05-20T03:26:55;100889.69;;;10.83;100.00
42859;BME280;28505;56.970;40.998;2023-05-20T03:32:18;100906.13;;;10.76;100.00
42859;BME280;28505;56.970;40.998;2023-05-20T03:37:40;100898.84;;;10.82;100.00
42859;BME280;28505;56.970;40.998;2023-05-20T03:43:02;100909.59;;;11.07;100.00
42859;BME280;28505;56.970;40.998;2023-05-20T03:48:25;100902.56;;;11.11;100.00
42859;BME280;28505;56.970;40.998;2023-05-20T03:53:47;100899.78;;;11.37;100.00
42859;BME280;28505;56.970;40.998;2023-05-20T03:59:09;100904.25;;;11.67;100.00
42859;BME280;28505;56.970;40.998;2023-05-20T04:04:31;100908.81;;;11.77;100.00
42859;BME280;28505;56.970;40.998;2023-05-20T04:09:53;100910.97;;;11.85;100.00
42859;BME280;28505;56.970;40.998;2023-05-20T04:15:16;100897.88;;;12.07;100.00
42859;BME280;28505;56.970;40.998;2023-05-20T04:20:47;100910.53;;;12.17;100.00
42859;BME280;28505;56.970;40.998;2023-05-20T04:26:10;100907.34;;;12.44;100.00
42859;BME280;28505;56.970;40.998;2023-05-20T04:31:33;100898.78;;;12.32;100.00
42859;BME280;28505;56.970;40.998;2023-05-20T04:36:56;100907.09;;;12.40;100.00
42859;BME280;28505;56.970;40.998;2023-05-20T04:42:19;100913.94;;;12.33;100.00
42859;BME280;28505;56.970;40.998;2023-05-20T04:47:43;100908.84;;;12.26;100.00
42859;BME280;28505;56.970;40.998;2023-05-20T04:53:07;100908.31;;;12.24;100.00
42859;BME280;28505;56.970;40.998;2023-05-20T04:58:29;100911.09;;;12.09;100.00
42859;BME280;28505;56.970;40.998;2023-05-20T05:03:52;100905.88;;;12.23;100.00
42859;BME280;28505;56.970;40.998;2023-05-20T05:09:14;100901.47;;;12.37;100.00
42859;BME280;28505;56.970;40.998;2023-05-20T05:14:38;100902.88;;;12.63;100.00
42859;BME280;28505;56.970;40.998;2023-05-20T05:20:00;100894.00;;;12.87;100.00
42859;BME280;28505;56.970;40.998;2023-05-20T05:25:25;100894.34;;;13.04;100.00
42859;BME280;28505;56.970;40.998;2023-05-20T05:30:47;100901.72;;;13.28;100.00
42859;BME280;28505;56.970;40.998;2023-05-20T05:36:10;100896.59;;;13.69;100.00
42859;BME280;28505;56.970;40.998;2023-05-20T05:41:32;100893.41;;;13.43;96.03
42859;BME280;28505;56.970;40.998;2023-05-20T05:46:55;100888.81;;;13.87;98.99
42859;BME280;28505;56.970;40.998;2023-05-20T05:52:16;100887.97;;;14.24;88.25
42859;BME280;28505;56.970;40.998;2023-05-20T05:57:39;100871.53;;;14.53;90.21
42859;BME280;28505;56.970;40.998;2023-05-20T06:03:04;100873.31;;;14.77;84.43
42859;BME280;28505;56.970;40.998;2023-05-20T06:08:31;100873.72;;;14.97;81.08
42859;BME280;28505;56.970;40.998;2023-05-20T06:13:54;100866.09;;;15.55;82.31
42859;BME280;28505;56.970;40.998;2023-05-20T06:19:18;100872.09;;;15.93;80.61
42859;BME280;28505;56.970;40.998;2023-05-20T06:24:39;100869.19;;;16.57;69.89
42859;BME280;28505;56.970;40.998;2023-05-20T06:30:03;100870.72;;;15.68;69.04
42859;BME280;28505;56.970;40.998;2023-05-20T06:35:26;100863.75;;;15.89;72.17
42859;BME280;28505;56.970;40.998;2023-05-20T06:40:50;100866.06;;;16.19;69.65
42859;BME280;28505;56.970;40.998;2023-05-20T06:46:12;100871.72;;;15.72;71.34
42859;BME280;28505;56.970;40.998;2023-05-20T06:51:40;100878.31;;;15.94;68.13
42859;BME280;28505;56.970;40.998;2023-05-20T06:57:02;100878.75;;;15.59;72.98
42859;BME280;28505;56.970;40.998;2023-05-20T07:02:25;100875.34;;;15.26;73.17
42859;BME280;28505;56.970;40.998;2023-05-20T07:07:47;100868.56;;;16.60;67.43
42859;BME280;28505;56.970;40.998;2023-05-20T07:13:10;100864.50;;;16.26;65.48
42859;BME280;28505;56.970;40.998;2023-05-20T07:18:32;100853.06;;;16.92;62.76
42859;BME280;28505;56.970;40.998;2023-05-20T07:23:57;100841.00;;;16.30;65.59
42859;BME280;28505;56.970;40.998;2023-05-20T07:29:20;100853.38;;;16.36;69.02
42859;BME280;28505;56.970;40.998;2023-05-20T07:34:42;100854.31;;;16.63;66.23
42859;BME280;28505;56.970;40.998;2023-05-20T07:40:05;100849.22;;;16.17;65.16
42859;BME280;28505;56.970;40.998;2023-05-20T07:45:28;100840.97;;;16.53;58.66
42859;BME280;28505;56.970;40.998;2023-05-20T07:50:50;100856.50;;;16.75;62.45
42859;BME280;28505;56.970;40.998;2023-05-20T07:56:13;100839.91;;;16.62;67.02
42859;BME280;28505;56.970;40.998;2023-05-20T08:01:35;100836.50;;;16.26;61.54
42859;BME280;28505;56.970;40.998;2023-05-20T08:06:58;100846.44;;;16.53;55.41
42859;BME280;28505;56.970;40.998;2023-05-20T08:12:40;100831.34;;;17.92;52.96
42859;BME280;28505;56.970;40.998;2023-05-20T08:18:02;100826.19;;;16.99;51.83
42859;BME280;28505;56.970;40.998;2023-05-20T08:23:25;100830.63;;;16.63;56.21
42859;BME280;28505;56.970;40.998;2023-05-20T08:28:47;100836.41;;;16.62;54.74
42859;BME280;28505;56.970;40.998;2023-05-20T08:34:11;100827.41;;;16.30;55.34
42859;BME280;28505;56.970;40.998;2023-05-20T08:39:36;100838.00;;;15.73;56.22
42859;BME280;28505;56.970;40.998;2023-05-20T08:45:00;100846.44;;;15.72;55.83
42859;BME280;28505;56.970;40.998;2023-05-20T08:50:25;100834.38;;;15.64;58.10
42859;BME280;28505;56.970;40.998;2023-05-20T08:55:55;100839.94;;;15.31;58.91
42859;BME280;28505;56.970;40.998;2023-05-20T09:01:25;100836.28;;;15.77;59.63
42859;BME280;28505;56.970;40.998;2023-05-20T09:06:49;100850.56;;;15.83;57.23
42859;BME280;28505;56.970;40.998;2023-05-20T09:12:14;100852.00;;;15.53;60.18
42859;BME280;28505;56.970;40.998;2023-05-20T09:17:37;100866.88;;;15.55;60.34
42859;BME280;28505;56.970;40.998;2023-05-20T09:23:02;100861.38;;;15.19;59.24
42859;BME280;28505;56.970;40.998;2023-05-20T09:28:24;100868.31;;;15.11;60.71
42859;BME280;28505;56.970;40.998;2023-05-20T09:33:50;100875.28;;;15.31;60.78
42859;BME280;28505;56.970;40.998;2023-05-20T09:39:18;100879.19;;;15.25;60.42
42859;BME280;28505;56.970;40.998;2023-05-20T09:44:44;100881.91;;;15.39;63.70
42859;BME280;28505;56.970;40.998;2023-05-20T09:50:09;100886.84;;;15.51;62.86
42859;BME280;28505;56.970;40.998;2023-05-20T09:55:31;100881.91;;;15.11;63.36
42859;BME280;28505;56.970;40.998;2023-05-20T10:00:54;100883.69;;;15.02;65.22
42859;BME280;28505;56.970;40.998;2023-05-20T10:17:40;100888.72;;;14.95;67.24
42859;BME280;28505;56.970;40.998;2023-05-20T10:23:05;100885.81;;;15.33;66.07
42859;BME280;28505;56.970;40.998;2023-05-20T10:28:32;100886.44;;;15.16;66.64
42859;BME280;28505;56.970;40.998;2023-05-20T10:33:57;100893.06;;;15.10;67.37
42859;BME280;28505;56.970;40.998;2023-05-20T10:39:25;100886.50;;;14.83;70.42
42859;BME280;28505;56.970;40.998;2023-05-20T10:44:49;100888.78;;;14.76;74.79
42859;BME280;28505;56.970;40.998;2023-05-20T10:50:25;100897.00;;;14.71;77.08
42859;BME280;28505;56.970;40.998;2023-05-20T10:55:53;100906.25;;;14.70;77.01
42859;BME280;28505;56.970;40.998;2023-05-20T11:01:23;100908.50;;;14.30;83.27
42859;BME280;28505;56.970;40.998;2023-05-20T11:06:49;100916.56;;;14.35;88.88
42859;BME280;28505;56.970;40.998;2023-05-20T11:12:12;100929.94;;;14.13;91.46
42859;BME280;28505;56.970;40.998;2023-05-20T11:17:37;100920.38;;;14.15;100.00
42859;BME280;28505;56.970;40.998;2023-05-20T11:23:00;100920.53;;;14.24;100.00
42859;BME280;28505;56.970;40.998;2023-05-20T11:28:23;100919.19;;;14.40;100.00
42859;BME280;28505;56.970;40.998;2023-05-20T11:33:46;100927.50;;;14.30;100.00
42859;BME280;28505;56.970;40.998;2023-05-20T11:39:10;100917.28;;;14.22;100.00
42859;BME280;28505;56.970;40.998;2023-05-20T11:44:33;100934.34;;;14.41;100.00
42859;BME280;28505;56.970;40.998;2023-05-20T11:49:55;100928.44;;;14.39;100.00
42859;BME280;28505;56.970;40.998;2023-05-20T11:55:17;100929.84;;;14.37;100.00
42859;BME280;28505;56.970;40.998;2023-05-20T12:00:40;100914.84;;;14.58;100.00
42859;BME280;28505;56.970;40.998;2023-05-20T12:06:13;100909.31;;;14.82;100.00
42859;BME280;28505;56.970;40.998;2023-05-20T12:11:36;100916.41;;;14.45;100.00
42859;BME280;28505;56.970;40.998;2023-05-20T12:17:02;100927.72;;;14.34;100.00
42859;BME280;28505;56.970;40.998;2023-05-20T12:22:23;100920.53;;;14.24;100.00
42859;BME280;28505;56.970;40.998;2023-05-20T12:27:47;100917.75;;;14.29;100.00
42859;BME280;28505;56.970;40.998;2023-05-20T12:33:09;100912.03;;;14.12;100.00
42859;BME280;28505;56.970;40.998;2023-05-20T12:38:31;100909.84;;;14.14;100.00
42859;BME280;28505;56.970;40.998;2023-05-20T12:43:54;100912.44;;;14.19;100.00
42859;BME280;28505;56.970;40.998;2023-05-20T12:49:18;100908.50;;;14.11;100.00
42859;BME280;28505;56.970;40.998;2023-05-20T12:54:41;100913.47;;;13.85;100.00
42859;BME280;28505;56.970;40.998;2023-05-20T13:00:04;100912.69;;;13.85;100.00
42859;BME280;28505;56.970;40.998;2023-05-20T13:05:31;100900.38;;;13.73;100.00
42859;BME280;28505;56.970;40.998;2023-05-20T13:10:53;100921.94;;;13.35;100.00
42859;BME280;28505;56.970;40.998;2023-05-20T13:16:15;100924.50;;;13.22;100.00
42859;BME280;28505;56.970;40.998;2023-05-20T13:21:38;100918.72;;;13.04;100.00
42859;BME280;28505;56.970;40.998;2023-05-20T13:27:04;100921.16;;;13.35;100.00
42859;BME280;28505;56.970;40.998;2023-05-20T13:32:29;100921.19;;;13.30;100.00
42859;BME280;28505;56.970;40.998;2023-05-20T13:37:54;100918.66;;;13.39;100.00
42859;BME280;28505;56.970;40.998;2023-05-20T13:43:17;100916.88;;;13.29;100.00
42859;BME280;28505;56.970;40.998;2023-05-20T13:48:39;100920.47;;;13.24;100.00
42859;BME280;28505;56.970;40.998;2023-05-20T13:54:02;100911.47;;;13.29;100.00
42859;BME280;28505;56.970;40.998;2023-05-20T13:59:25;100901.91;;;13.07;100.00
42859;BME280;28505;56.970;40.998;2023-05-20T14:04:48;100902.88;;;13.17;100.00
42859;BME280;28505;56.970;40.998;2023-05-20T14:10:09;100898.69;;;13.05;100.00
42859;BME280;28505;56.970;40.998;2023-05-20T14:15:32;100894.31;;;12.80;100.00
42859;BME280;28505;56.970;40.998;2023-05-20T14:20:56;100898.69;;;12.76;100.00
42859;BME280;28505;56.970;40.998;2023-05-20T14:26:18;100895.31;;;12.60;100.00
42859;BME280;28505;56.970;40.998;2023-05-20T14:31:40;100891.19;;;12.68;100.00
42859;BME280;28505;56.970;40.998;2023-05-20T14:37:02;100895.59;;;12.88;100.00
42859;BME280;28505;56.970;40.998;2023-05-20T14:42:30;100895.59;;;12.88;100.00
42859;BME280;28505;56.970;40.998;2023-05-20T14:47:52;100892.63;;;12.89;100.00
42859;BME280;28505;56.970;40.998;2023-05-20T14:53:15;100884.25;;;12.86;100.00
42859;BME280;28505;56.970;40.998;2023-05-20T14:58:38;100886.88;;;12.96;100.00
42859;BME280;28505;56.970;40.998;2023-05-20T15:04:00;100887.06;;;12.76;100.00
42859;BME280;28505;56.970;40.998;2023-05-20T15:09:22;100874.50;;;12.85;100.00
42859;BME280;28505;56.970;40.998;2023-05-20T15:14:44;100882.22;;;12.73;100.00
42859;BME280;28505;56.970;40.998;2023-05-20T15:20:07;100875.38;;;12.80;100.00
42859;BME280;28505;56.970;40.998;2023-05-20T15:25:30;100877.88;;;12.72;100.00
42859;BME280;28505;56.970;40.998;2023-05-20T15:30:53;100868.16;;;12.71;100.00
42859;BME280;28505;56.970;40.998;2023-05-20T15:36:16;100870.34;;;12.69;100.00
42859;BME280;28505;56.970;40.998;2023-05-20T15:41:39;100871.56;;;12.52;100.00
42859;BME280;28505;56.970;40.998;2023-05-20T15:47:02;100867.66;;;12.34;100.00
42859;BME280;28505;56.970;40.998;2023-05-20T15:52:27;100873.84;;;12.40;100.00
42859;BME280;28505;56.970;40.998;2023-05-20T15:57:50;100869.41;;;12.54;100.00
42859;BME280;28505;56.970;40.998;2023-05-20T16:03:12;100869.63;;;12.58;100.00
42859;BME280;28505;56.970;40.998;2023-05-20T16:08:37;100867.31;;;12.46;100.00
42859;BME280;28505;56.970;40.998;2023-05-20T16:14:01;100873.56;;;12.41;100.00
42859;BME280;28505;56.970;40.998;2023-05-20T16:19:23;100875.34;;;12.56;100.00
42859;BME280;28505;56.970;40.998;2023-05-20T16:24:46;100873.84;;;12.40;100.00
42859;BME280;28505;56.970;40.998;2023-05-20T16:30:09;100878.78;;;12.33;100.00
42859;BME280;28505;56.970;40.998;2023-05-20T16:35:31;100874.56;;;12.51;100.00
42859;BME280;28505;56.970;40.998;2023-05-20T16:40:53;100878.69;;;12.43;100.00
42859;BME280;28505;56.970;40.998;2023-05-20T16:46:15;100868.91;;;12.47;100.00
42859;BME280;28505;56.970;40.998;2023-05-20T16:51:38;100873.84;;;12.40;100.00
42859;BME280;28505;56.970;40.998;2023-05-20T16:57:01;100874.66;;;12.40;100.00
42859;BME280;28505;56.970;40.998;2023-05-20T17:02:24;100873.06;;;12.34;100.00
42859;BME280;28505;56.970;40.998;2023-05-20T17:07:46;100874.41;;;12.37;100.00
42859;BME280;28505;56.970;40.998;2023-05-20T17:13:10;100864.09;;;12.39;100.00
42859;BME280;28505;56.970;40.998;2023-05-20T17:18:33;100865.88;;;12.19;100.00
42859;BME280;28505;56.970;40.998;2023-05-20T17:23:55;100873.88;;;12.35;100.00
42859;BME280;28505;56.970;40.998;2023-05-20T17:29:18;100859.84;;;12.33;100.00
42859;BME280;28505;56.970;40.998;2023-05-20T17:34:40;100852.31;;;12.30;100.00
42859;BME280;28505;56.970;40.998;2023-05-20T17:40:02;100856.16;;;12.18;100.00
42859;BME280;28505;56.970;40.998;2023-05-20T17:45:27;100858.31;;;12.22;100.00
42859;BME280;28505;56.970;40.998;2023-05-20T17:50:49;100864.56;;;12.17;100.00
42859;BME280;28505;56.970;40.998;2023-05-20T17:56:12;100862.09;;;12.21;100.00
42859;BME280;28505;56.970;40.998;2023-05-20T18:01:34;100865.63;;;12.16;100.00
42859;BME280;28505;56.970;40.998;2023-05-20T18:06:58;100868.16;;;12.07;100.00
42859;BME280;28505;56.970;40.998;2023-05-20T18:12:21;100868.97;;;12.03;100.00
42859;BME280;28505;56.970;40.998;2023-05-20T18:17:44;100870.41;;;11.90;100.00
42859;BME280;28505;56.970;40.998;2023-05-20T18:23:08;100861.16;;;12.01;100.00
42859;BME280;28505;56.970;40.998;2023-05-20T18:28:31;100847.09;;;11.99;100.00
42859;BME280;28505;56.970;40.998;2023-05-20T18:33:55;100855.56;;;11.87;100.00
42859;BME280;28505;56.970;40.998;2023-05-20T18:39:17;100856.88;;;11.95;100.00
42859;BME280;28505;56.970;40.998;2023-05-20T18:44:42;100861.22;;;11.91;100.00
42859;BME280;28505;56.970;40.998;2023-05-20T18:50:06;100870.41;;;11.90;100.00
42859;BME280;28505;56.970;40.998;2023-05-20T18:55:29;100870.38;;;11.95;100.00
42859;BME280;28505;56.970;40.998;2023-05-20T19:00:51;100868.78;;;11.89;100.00
42859;BME280;28505;56.970;40.998;2023-05-20T19:06:13;100875.84;;;11.80;100.00
42859;BME280;28505;56.970;40.998;2023-05-20T19:11:39;100878.50;;;11.90;100.00
42859;BME280;28505;56.970;40.998;2023-05-20T19:17:01;100868.28;;;11.82;100.00
42859;BME280;28505;56.970;40.998;2023-05-20T19:22:24;100861.81;;;11.72;100.00
42859;BME280;28505;56.970;40.998;2023-05-20T19:27:48;100868.81;;;11.79;100.00
42859;BME280;28505;56.970;40.998;2023-05-20T19:33:10;100887.72;;;11.84;100.00
42859;BME280;28505;56.970;40.998;2023-05-20T19:38:32;100897.97;;;11.82;100.00
42859;BME280;28505;56.970;40.998;2023-05-20T19:43:54;100887.47;;;11.85;100.00
42859;BME280;28505;56.970;40.998;2023-05-20T19:49:16;100892.28;;;11.83;100.00
42859;BME280;28505;56.970;40.998;2023-05-20T19:54:41;100893.13;;;11.84;100.00
42859;BME280;28505;56.970;40.998;2023-05-20T20:00:04;100882.03;;;11.90;100.00
42859;BME280;28505;56.970;40.998;2023-05-20T20:05:33;100888.81;;;11.78;100.00
42859;BME280;28505;56.970;40.998;2023-05-20T20:10:56;100891.00;;;11.76;100.00
42859;BME280;28505;56.970;40.998;2023-05-20T20:16:18;100898.53;;;11.79;100.00
42859;BME280;28505;56.970;40.998;2023-05-20T20:21:40;100900.41;;;11.83;100.00
42859;BME280;28505;56.970;40.998;2023-05-20T20:27:04;100887.16;;;11.87;100.00
42859;BME280;28505;56.970;40.998;2023-05-20T20:32:26;100882.56;;;11.82;100.00
42859;BME280;28505;56.970;40.998;2023-05-20T20:37:51;100887.75;;;11.73;100.00
42859;BME280;28505;56.970;40.998;2023-05-20T20:43:16;100893.44;;;11.77;100.00
42859;BME280;28505;56.970;40.998;2023-05-20T20:48:41;100889.88;;;11.82;100.00
42859;BME280;28505;56.970;40.998;2023-05-20T20:54:07;100882.84;;;11.91;100.00
42859;BME280;28505;56.970;40.998;2023-05-20T20:59:30;100876.63;;;11.80;100.00
42859;BME280;28505;56.970;40.998;2023-05-20T21:04:52;100881.34;;;11.59;100.00
42859;BME280;28505;56.970;40.998;2023-05-20T21:10:19;100879.13;;;11.71;100.00
42859;BME280;28505;56.970;40.998;2023-05-20T21:15:42;100882.69;;;11.57;100.00
42859;BME280;28505;56.970;40.998;2023-05-20T21:21:07;100876.53;;;11.51;100.00
42859;BME280;28505;56.970;40.998;2023-05-20T21:26:33;100877.28;;;11.62;100.00
42859;BME280;28505;56.970;40.998;2023-05-20T21:31:55;100878.38;;;11.56;100.00
42859;BME280;28505;56.970;40.998;2023-05-20T21:37:18;100888.41;;;11.50;100.00
42859;BME280;28505;56.970;40.998;2023-05-20T21:42:40;100881.34;;;11.64;100.00
42859;BME280;28505;56.970;40.998;2023-05-20T21:48:02;100871.13;;;11.51;100.00
42859;BME280;28505;56.970;40.998;2023-05-20T21:53:24;100877.03;;;11.53;100.00
42859;BME280;28505;56.970;40.998;2023-05-20T21:58:47;100882.44;;;11.53;100.00
42859;BME280;28505;56.970;40.998;2023-05-20T22:04:08;100878.69;;;11.49;100.00
42859;BME280;28505;56.970;40.998;2023-05-20T22:09:32;100886.19;;;11.57;100.00
42859;BME280;28505;56.970;40.998;2023-05-20T22:14:54;100879.19;;;11.56;100.00
42859;BME280;28505;56.970;40.998;2023-05-20T22:20:17;100880.09;;;11.41;100.00
42859;BME280;28505;56.970;40.998;2023-05-20T22:25:39;100871.66;;;11.53;100.00
42859;BME280;28505;56.970;40.998;2023-05-20T22:31:02;100877.13;;;11.33;100.00
42859;BME280;28505;56.970;40.998;2023-05-20T22:36:27;100877.09;;;11.38;100.00
42859;BME280;28505;56.970;40.998;2023-05-20T22:41:56;100882.50;;;11.38;100.00
42859;BME280;28505;56.970;40.998;2023-05-20T22:47:18;100872.78;;;11.42;100.00
42859;BME280;28505;56.970;40.998;2023-05-20T22:52:40;100876.56;;;11.41;100.00
42859;BME280;28505;56.970;40.998;2023-05-20T22:58:02;100877.69;;;11.30;100.00
42859;BME280;28505;56.970;40.998;2023-05-20T23:03:24;100863.09;;;11.31;100.00
42859;BME280;28505;56.970;40.998;2023-05-20T23:08:46;100862.59;;;11.23;100.00
42859;BME280;28505;56.970;40.998;2023-05-20T23:14:08;100867.94;;;11.34;100.00
42859;BME280;28505;56.970;40.998;2023-05-20T23:19:29;100867.44;;;11.32;100.00
42859;BME280;28505;56.970;40.998;2023-05-20T23:24:52;100861.69;;;11.43;100.00
42859;BME280;28505;56.970;40.998;2023-05-20T23:30:13;100856.63;;;11.27;100.00
42859;BME280;28505;56.970;40.998;2023-05-20T23:35:36;100866.88;;;11.24;100.00
42859;BME280;28505;56.970;40.998;2023-05-20T23:40:59;100863.63;;;11.33;100.00
42859;BME280;28505;56.970;40.998;2023-05-20T23:46:21;100869.59;;;11.24;100.00
42859;BME280;28505;56.970;40.998;2023-05-20T23:51:44;100863.09;;;11.31;100.00
42859;BME280;28505;56.970;40.998;2023-05-20T23:57:05;100852.56;;;11.34;100.00
